Adams, Oklahoma
Current Conditions -  °F | °C
As of 2:15 AM on Friday 31 Oct 2014 (Local Time) from KLBL Reporting Station
Clear Clear  
Wind Chill:   Ceiling: Unl
Heat Index:   Visibility: 10mi
Dew Point: -1°   Wind: 10mph
Humidity: 57%   Direction: 40°NE
Pressure: 30.41"   Gusts: NA
Location:  36.76°N, 101.08°W
Report Text: KLBL 310715Z AUTO 04009KT 10SM CLR 07/M01 A3041 RMK AO1
Loading
Personal Weather Stations






























Interactive Weather Map
Tropical Storm Tracking
New forecast layout! Learn more

10-Day Weather Forecast

Advertisements
Track Severe Weather on mobile